createdAt,value
2023-01-20T00:02:07.314Z,1.78
2023-01-20T00:04:37.636Z,1.75
2023-01-20T00:07:07.971Z,1.77
2023-01-20T00:09:38.137Z,1.73
2023-01-20T00:12:08.358Z,1.73
2023-01-20T00:14:38.547Z,1.73
2023-01-20T00:17:08.738Z,1.73
2023-01-20T00:19:38.976Z,1.71
2023-01-20T00:22:09.077Z,1.69
2023-01-20T00:24:39.244Z,1.65
2023-01-20T00:27:09.583Z,1.63
2023-01-20T00:29:39.686Z,1.58
2023-01-20T00:32:11.389Z,1.58
2023-01-20T00:34:41.489Z,1.58
2023-01-20T00:37:11.643Z,1.54
2023-01-20T00:39:41.781Z,1.46
2023-01-20T00:42:11.951Z,1.41
2023-01-20T00:44:42.041Z,1.37
2023-01-20T00:47:12.320Z,1.35
2023-01-20T00:49:42.364Z,1.29
2023-01-20T00:52:12.783Z,1.31
2023-01-20T00:54:42.991Z,1.27
2023-01-20T00:57:13.216Z,1.27
2023-01-20T00:59:43.362Z,1.22
2023-01-20T01:02:13.586Z,1.16
2023-01-20T01:04:43.860Z,1.11
2023-01-20T01:07:13.913Z,1.12
2023-01-20T01:09:44.213Z,1.09
2023-01-20T01:12:14.261Z,1.05
2023-01-20T01:14:44.449Z,0.99
2023-01-20T01:17:14.581Z,1.01
2023-01-20T01:19:44.775Z,0.97
2023-01-20T01:22:14.862Z,1.08
2023-01-20T01:24:45.111Z,1.06
2023-01-20T01:27:16.033Z,1.03
2023-01-20T01:29:46.144Z,1.04
2023-01-20T01:32:16.396Z,1.04
2023-01-20T01:34:49.186Z,1.03
2023-01-20T01:37:20.903Z,1.04
2023-01-20T01:39:51.524Z,1.02
2023-01-20T01:42:26.268Z,1.00
2023-01-20T01:45:08.662Z,1.02
2023-01-20T01:47:42.973Z,0.98
2023-01-20T01:50:18.343Z,0.96
2023-01-20T01:52:53.354Z,0.99
2023-01-20T01:55:28.762Z,0.98
2023-01-20T01:58:00.145Z,0.96
2023-01-20T02:00:30.342Z,0.86
2023-01-20T02:03:00.927Z,0.86
2023-01-20T02:05:32.007Z,0.82
2023-01-20T02:08:03.535Z,0.78
2023-01-20T02:10:33.773Z,0.76
2023-01-20T02:13:05.333Z,0.70
2023-01-20T02:15:59.250Z,0.64
2023-01-20T02:19:04.414Z,0.64
2023-01-20T02:22:06.238Z,0.61
2023-01-20T02:25:01.160Z,0.55
2023-01-20T02:27:43.412Z,0.48
2023-01-20T02:30:13.461Z,0.47
2023-01-20T02:33:10.394Z,0.47
2023-01-20T02:35:53.475Z,0.45
2023-01-20T02:38:33.180Z,0.36
2023-01-20T02:41:25.037Z,0.39
2023-01-20T02:44:08.744Z,0.40
2023-01-20T02:46:52.739Z,0.38
2023-01-20T02:49:36.591Z,0.32
2023-01-20T02:52:06.761Z,0.39
2023-01-20T02:54:40.801Z,0.38
2023-01-20T02:57:15.877Z,0.42
2023-01-20T02:59:51.785Z,0.42
2023-01-20T03:02:27.614Z,0.47
2023-01-20T03:05:16.528Z,0.51
2023-01-20T03:07:49.300Z,0.52
2023-01-20T03:10:22.949Z,0.55
2023-01-20T03:13:02.620Z,0.61
2023-01-20T03:15:52.445Z,0.63
2023-01-20T03:18:23.129Z,0.65
2023-01-20T03:20:53.358Z,0.62
2023-01-20T03:23:24.085Z,0.68
2023-01-20T03:25:55.642Z,0.69
2023-01-20T03:28:26.096Z,0.72
2023-01-20T03:30:57.777Z,0.71
2023-01-20T03:33:28.123Z,0.71
2023-01-20T03:35:58.500Z,0.62
2023-01-20T03:38:28.850Z,0.71
2023-01-20T03:41:15.161Z,0.71
2023-01-20T03:44:26.341Z,0.69
2023-01-20T03:47:18.297Z,0.72
2023-01-20T03:49:55.031Z,0.70
2023-01-20T03:52:47.064Z,0.74
2023-01-20T03:55:24.267Z,0.75
2023-01-20T03:58:05.997Z,0.72
2023-01-20T04:00:44.369Z,0.69
2023-01-20T04:03:38.201Z,0.70
2023-01-20T04:06:11.989Z,0.64
2023-01-20T04:08:56.359Z,0.73
2023-01-20T04:11:28.065Z,0.79
2023-01-20T04:13:58.277Z,0.76
2023-01-20T04:16:28.601Z,0.75
2023-01-20T04:18:58.718Z,0.78
2023-01-20T04:21:48.520Z,0.80
2023-01-20T04:24:39.235Z,0.82
2023-01-20T04:27:09.511Z,0.82
2023-01-20T04:29:41.679Z,0.82
2023-01-20T04:32:13.542Z,0.81
2023-01-20T04:34:43.693Z,0.69
2023-01-20T04:37:13.831Z,0.54
2023-01-20T04:39:43.933Z,0.56
2023-01-20T04:42:14.039Z,0.50
2023-01-20T04:44:44.957Z,0.60
2023-01-20T04:47:15.125Z,0.60
2023-01-20T04:49:45.753Z,0.63
2023-01-20T04:52:16.764Z,0.55
2023-01-20T04:54:46.909Z,0.51
2023-01-20T04:57:17.060Z,0.42
2023-01-20T04:59:47.210Z,0.40
2023-01-20T05:02:17.521Z,0.44
2023-01-20T05:04:47.866Z,0.50
2023-01-20T05:07:18.111Z,0.55
2023-01-20T05:09:48.752Z,0.51
2023-01-20T05:12:23.927Z,0.51
2023-01-20T05:14:54.790Z,0.42
2023-01-20T05:17:25.003Z,0.33
2023-01-20T05:19:55.277Z,0.32
2023-01-20T05:22:25.456Z,0.35
2023-01-20T05:24:55.686Z,0.34
2023-01-20T05:27:26.305Z,0.35
2023-01-20T05:29:56.491Z,0.34
2023-01-20T05:32:26.727Z,0.34
2023-01-20T05:34:56.887Z,0.34
2023-01-20T05:37:27.052Z,0.34
2023-01-20T05:39:57.200Z,0.30
2023-01-20T05:42:27.637Z,0.22
2023-01-20T05:44:57.813Z,0.13
2023-01-20T05:47:28.077Z,0.08
2023-01-20T05:49:58.171Z,0.03
2023-01-20T05:52:28.265Z,0.02
2023-01-20T05:54:58.581Z,0.04
2023-01-20T05:57:28.747Z,0.03
2023-01-20T05:59:58.889Z,0.01
2023-01-20T06:02:31.126Z,-0.05
2023-01-20T06:05:04.097Z,-0.06
2023-01-20T06:07:34.323Z,-0.11
2023-01-20T06:10:19.595Z,-0.08
2023-01-20T06:12:55.740Z,-0.08
2023-01-20T06:15:26.189Z,-0.07
2023-01-20T06:17:56.393Z,-0.08
2023-01-20T06:20:26.720Z,-0.08
2023-01-20T06:22:56.860Z,-0.04
2023-01-20T06:25:27.077Z,-0.02
2023-01-20T06:27:57.187Z,0.00
2023-01-20T06:30:27.360Z,0.02
2023-01-20T06:32:58.050Z,0.00
2023-01-20T06:35:28.157Z,-0.03
2023-01-20T06:37:59.142Z,-0.04
2023-01-20T06:40:32.819Z,-0.09
2023-01-20T06:43:03.442Z,-0.06
2023-01-20T06:45:33.561Z,-0.02
2023-01-20T06:48:03.743Z,-0.00
2023-01-20T06:50:33.903Z,-0.01
2023-01-20T06:53:04.149Z,-0.01
2023-01-20T06:55:34.330Z,-0.05
2023-01-20T06:58:04.574Z,-0.05
2023-01-20T07:00:34.801Z,-0.09
2023-01-20T07:03:04.951Z,-0.13
2023-01-20T07:05:35.035Z,-0.12
2023-01-20T07:08:05.437Z,-0.14
2023-01-20T07:10:36.323Z,-0.11
2023-01-20T07:13:06.594Z,-0.10
2023-01-20T07:15:36.730Z,-0.10
2023-01-20T07:18:06.935Z,-0.10
2023-01-20T07:20:38.873Z,-0.13
2023-01-20T07:23:08.950Z,-0.14
2023-01-20T07:25:39.683Z,-0.12
2023-01-20T07:28:09.885Z,-0.13
2023-01-20T07:30:40.025Z,-0.14
2023-01-20T07:33:10.161Z,-0.10
2023-01-20T07:35:40.234Z,-0.11
2023-01-20T07:38:10.901Z,-0.09
2023-01-20T07:40:41.015Z,-0.07
2023-01-20T07:43:11.333Z,-0.10
2023-01-20T07:45:41.595Z,-0.13
2023-01-20T07:48:11.722Z,-0.15
2023-01-20T07:50:41.768Z,-0.17
2023-01-20T07:53:11.942Z,-0.12
2023-01-20T07:55:42.014Z,-0.22
2023-01-20T07:58:12.209Z,-0.14
2023-01-20T08:00:42.366Z,-0.04
2023-01-20T08:03:12.595Z,-0.05
2023-01-20T08:05:42.990Z,-0.11
2023-01-20T08:08:13.265Z,-0.12
2023-01-20T08:10:43.437Z,-0.15
2023-01-20T08:13:13.595Z,-0.10
2023-01-20T08:15:43.737Z,-0.06
2023-01-20T08:18:13.841Z,-0.08
2023-01-20T08:20:43.994Z,0.02
2023-01-20T08:23:14.191Z,0.04
2023-01-20T08:25:44.332Z,0.07
2023-01-20T08:28:14.532Z,0.07
2023-01-20T08:30:44.771Z,0.09
2023-01-20T08:33:14.907Z,0.07
2023-01-20T08:35:45.101Z,0.05
2023-01-20T08:38:15.261Z,0.02
2023-01-20T08:40:45.359Z,-0.05
2023-01-20T08:43:21.111Z,0.08
2023-01-20T08:46:03.135Z,0.14
2023-01-20T08:48:40.725Z,0.17
2023-01-20T08:51:14.509Z,0.16
2023-01-20T08:53:44.877Z,0.17
2023-01-20T08:56:15.427Z,0.12
2023-01-20T08:58:46.174Z,0.20
2023-01-20T09:01:21.272Z,0.21
2023-01-20T09:04:04.991Z,0.21
2023-01-20T09:06:50.470Z,0.22
2023-01-20T09:09:22.652Z,0.21
2023-01-20T09:11:52.876Z,0.18
2023-01-20T09:14:25.065Z,0.27
2023-01-20T09:16:55.264Z,0.30
2023-01-20T09:19:25.677Z,0.30
2023-01-20T09:21:56.091Z,0.28
2023-01-20T09:24:26.368Z,0.29
2023-01-20T09:26:57.411Z,0.32
2023-01-20T09:29:27.738Z,0.34
2023-01-20T09:32:00.688Z,0.36
2023-01-20T09:34:31.422Z,0.34
2023-01-20T09:37:22.662Z,0.34
2023-01-20T09:40:11.508Z,0.32
2023-01-20T09:43:15.593Z,0.28
2023-01-20T09:46:16.272Z,0.26
2023-01-20T09:49:04.779Z,0.27
2023-01-20T09:52:05.019Z,0.22
2023-01-20T09:54:51.011Z,0.24
2023-01-20T09:57:24.938Z,0.23
2023-01-20T10:00:03.988Z,0.19
2023-01-20T10:02:36.822Z,0.21
2023-01-20T10:05:20.825Z,0.15
2023-01-20T10:07:58.768Z,0.16
2023-01-20T10:10:39.891Z,0.21
2023-01-20T10:13:25.557Z,0.17
2023-01-20T10:15:57.291Z,0.17
2023-01-20T10:18:48.548Z,0.17
2023-01-20T10:21:33.507Z,0.13
2023-01-20T10:24:40.629Z,0.24
2023-01-20T10:27:10.777Z,0.26
2023-01-20T10:30:09.358Z,0.32
2023-01-20T10:32:47.684Z,0.33
2023-01-20T10:35:23.271Z,0.34
2023-01-20T10:37:55.840Z,0.35
2023-01-20T10:40:46.713Z,0.37
2023-01-20T10:43:18.832Z,0.37
2023-01-20T10:46:12.314Z,0.39
2023-01-20T10:49:04.223Z,0.40
2023-01-20T10:52:00.048Z,0.39
2023-01-20T10:54:46.565Z,0.38
2023-01-20T10:57:16.919Z,0.36
2023-01-20T10:59:54.649Z,0.34
2023-01-20T11:02:35.060Z,0.38
2023-01-20T11:05:21.458Z,0.31
2023-01-20T11:07:54.217Z,0.39
2023-01-20T11:10:27.730Z,0.41
2023-01-20T11:13:00.000Z,0.45
2023-01-20T11:15:37.013Z,0.41
2023-01-20T11:18:16.580Z,0.40
2023-01-20T11:21:01.215Z,0.32
2023-01-20T11:23:46.552Z,0.28
2023-01-20T11:26:26.258Z,0.28
2023-01-20T11:29:01.112Z,0.23
2023-01-20T11:31:47.584Z,0.23
2023-01-20T11:34:23.456Z,0.31
2023-01-20T11:37:05.584Z,0.41
2023-01-20T11:39:49.453Z,0.42
2023-01-20T11:42:27.802Z,0.41
2023-01-20T11:45:11.738Z,0.42
2023-01-20T11:48:20.377Z,0.38
2023-01-20T11:50:56.349Z,0.36
2023-01-20T11:53:27.979Z,0.39
2023-01-20T11:56:05.774Z,0.39
2023-01-20T11:58:54.973Z,0.40
2023-01-20T12:01:30.667Z,0.38
2023-01-20T12:04:07.000Z,0.31
2023-01-20T12:07:05.528Z,0.19
2023-01-20T12:09:40.717Z,0.25
2023-01-20T12:12:38.389Z,0.25
2023-01-20T12:15:29.001Z,0.24
2023-01-20T12:18:01.097Z,0.27
2023-01-20T12:20:54.127Z,0.33
2023-01-20T12:23:49.508Z,0.36
2023-01-20T12:26:28.436Z,0.44
2023-01-20T12:29:26.143Z,0.45
2023-01-20T12:31:56.503Z,0.49
2023-01-20T12:34:26.591Z,0.53
2023-01-20T12:37:25.382Z,0.51
2023-01-20T12:39:58.614Z,0.58
2023-01-20T12:42:56.413Z,0.62
2023-01-20T12:45:54.657Z,0.66
2023-01-20T12:48:43.033Z,0.66
2023-01-20T12:51:22.088Z,0.69
2023-01-20T12:54:08.001Z,0.62
2023-01-20T12:56:56.222Z,0.63
2023-01-20T12:59:48.015Z,0.62
2023-01-20T13:02:50.128Z,0.66
2023-01-20T13:05:47.475Z,0.68
2023-01-20T13:08:43.846Z,0.63
2023-01-20T13:11:46.085Z,0.56
2023-01-20T13:14:31.570Z,0.46
2023-01-20T13:17:15.945Z,0.42
2023-01-20T13:19:49.304Z,0.45
2023-01-20T13:22:21.850Z,0.47
2023-01-20T13:24:55.402Z,0.49
2023-01-20T13:27:33.426Z,0.50
2023-01-20T13:30:08.504Z,0.45
2023-01-20T13:32:46.541Z,0.38
2023-01-20T13:35:25.728Z,0.41
2023-01-20T13:37:59.291Z,0.40
2023-01-20T13:40:38.151Z,0.42
2023-01-20T13:43:24.289Z,0.43
2023-01-20T13:46:03.335Z,0.41
2023-01-20T13:48:38.044Z,0.35
2023-01-20T13:51:19.715Z,0.36
2023-01-20T13:53:49.865Z,0.29
2023-01-20T13:56:33.456Z,0.26
2023-01-20T13:59:07.859Z,0.26
2023-01-20T14:01:39.616Z,0.27
2023-01-20T14:04:19.066Z,0.27
2023-01-20T14:06:51.802Z,0.30
2023-01-20T14:09:24.678Z,0.35
2023-01-20T14:11:57.230Z,0.40
2023-01-20T14:14:27.661Z,0.36
2023-01-20T14:16:57.952Z,0.43
2023-01-20T14:19:32.642Z,0.45
2023-01-20T14:22:24.599Z,0.51
2023-01-20T14:25:00.895Z,0.48
2023-01-20T14:27:35.568Z,0.57
2023-01-20T14:33:08.520Z,0.58
2023-01-20T14:35:42.643Z,0.58
2023-01-20T14:38:19.075Z,0.55
2023-01-20T14:40:50.059Z,0.49
2023-01-20T14:43:22.707Z,0.51
2023-01-20T14:45:53.632Z,0.48
2023-01-20T14:48:34.461Z,0.44
2023-01-20T14:51:06.323Z,0.39
2023-01-20T14:53:36.785Z,0.36
2023-01-20T14:56:21.872Z,0.33
2023-01-20T14:58:55.387Z,0.35
2023-01-20T15:01:26.997Z,0.34
2023-01-20T15:03:59.747Z,0.38
2023-01-20T15:06:29.878Z,0.37
2023-01-20T15:09:06.903Z,0.44
2023-01-20T15:11:37.399Z,0.43
2023-01-20T15:14:09.162Z,0.46
2023-01-20T15:16:49.519Z,0.48
2023-01-20T15:19:30.870Z,0.41
2023-01-20T15:22:18.833Z,0.35
2023-01-20T15:24:50.184Z,0.37
2023-01-20T15:27:25.119Z,0.36
2023-01-20T15:30:24.382Z,0.38
2023-01-20T15:32:55.738Z,0.37
2023-01-20T15:35:26.980Z,0.34
2023-01-20T15:37:57.377Z,0.29
2023-01-20T15:40:28.605Z,0.27
2023-01-20T15:42:58.739Z,0.21
2023-01-20T15:45:28.950Z,0.18
2023-01-20T15:47:59.158Z,0.16
2023-01-20T15:50:31.499Z,0.16
2023-01-20T15:53:03.442Z,0.13
2023-01-20T15:55:50.123Z,0.14
2023-01-20T15:58:27.523Z,0.13
2023-01-20T16:01:02.469Z,0.12
2023-01-20T16:03:36.398Z,0.13
2023-01-20T16:06:13.726Z,0.12
2023-01-20T16:08:46.585Z,0.14
2023-01-20T16:11:19.268Z,0.13
2023-01-20T16:13:49.393Z,0.09
2023-01-20T16:16:24.656Z,0.20
2023-01-20T16:18:54.868Z,0.24
2023-01-20T16:21:25.608Z,0.27
2023-01-20T16:23:55.728Z,0.23
2023-01-20T16:26:28.866Z,0.22
2023-01-20T16:28:59.271Z,0.19
2023-01-20T16:31:29.536Z,0.19
2023-01-20T16:33:59.668Z,0.18
2023-01-20T16:36:29.871Z,0.19
2023-01-20T16:39:00.016Z,0.19
2023-01-20T16:41:31.076Z,0.15
2023-01-20T16:44:01.184Z,0.14
2023-01-20T16:46:33.066Z,0.18
2023-01-20T16:49:03.894Z,0.15
2023-01-20T16:51:34.130Z,0.21
2023-01-20T16:54:04.253Z,0.21
2023-01-20T16:56:34.469Z,0.21
2023-01-20T16:59:05.851Z,0.23
2023-01-20T17:01:36.034Z,0.22
2023-01-20T17:04:06.174Z,0.20
2023-01-20T17:06:36.400Z,0.31
2023-01-20T17:09:06.529Z,0.37
2023-01-20T17:11:40.590Z,0.41
2023-01-20T17:14:11.877Z,0.47
2023-01-20T17:16:42.480Z,0.47
2023-01-20T17:19:13.731Z,0.55
2023-01-20T17:21:44.907Z,0.53
2023-01-20T17:24:15.064Z,0.59
2023-01-20T17:26:45.377Z,0.60
2023-01-20T17:29:15.566Z,0.66
2023-01-20T17:31:45.775Z,0.68
2023-01-20T17:34:16.330Z,0.73
2023-01-20T17:36:48.621Z,0.75
2023-01-20T17:39:21.507Z,0.80
2023-01-20T17:41:54.254Z,0.78
2023-01-20T17:44:25.414Z,0.72
2023-01-20T17:46:55.602Z,0.77
2023-01-20T17:49:25.735Z,0.81
2023-01-20T17:51:55.919Z,0.83
2023-01-20T17:54:31.894Z,0.78
2023-01-20T17:57:04.990Z,0.77
2023-01-20T18:02:23.370Z,0.79
2023-01-20T18:04:56.665Z,0.78
2023-01-20T18:07:26.788Z,0.74
2023-01-20T18:09:56.878Z,0.72
2023-01-20T18:12:29.043Z,0.70
2023-01-20T18:14:59.281Z,0.67
2023-01-20T18:17:34.546Z,0.69
2023-01-20T18:20:05.470Z,0.70
2023-01-20T18:22:35.785Z,0.71
2023-01-20T18:25:15.163Z,0.73
2023-01-20T18:27:52.921Z,0.71
2023-01-20T18:30:25.596Z,0.73
2023-01-20T18:32:57.923Z,0.71
2023-01-20T18:35:28.355Z,0.67
2023-01-20T18:38:02.030Z,0.67
2023-01-20T18:40:32.104Z,0.70
2023-01-20T18:43:20.055Z,0.68
2023-01-20T18:45:53.207Z,0.65
2023-01-20T18:48:25.381Z,0.62
2023-01-20T18:51:00.445Z,0.67
2023-01-20T18:53:31.623Z,0.67
2023-01-20T18:56:03.584Z,0.64
2023-01-20T18:58:35.316Z,0.70
2023-01-20T19:01:07.544Z,0.67
2023-01-20T19:03:39.669Z,0.70
2023-01-20T19:06:12.830Z,0.66
2023-01-20T19:08:44.329Z,0.64
2023-01-20T19:11:17.878Z,0.62
2023-01-20T19:13:50.102Z,0.59
2023-01-20T19:16:26.097Z,0.58
2023-01-20T19:19:01.856Z,0.55
2023-01-20T19:21:33.366Z,0.50
2023-01-20T19:24:06.143Z,0.53
2023-01-20T19:26:37.907Z,0.50
2023-01-20T19:29:12.385Z,0.47
2023-01-20T19:31:42.749Z,0.45
2023-01-20T19:34:13.275Z,0.41
2023-01-20T19:36:48.424Z,0.38
2023-01-20T19:39:21.366Z,0.39
2023-01-20T19:41:54.208Z,0.37
2023-01-20T19:44:25.628Z,0.38
2023-01-20T19:46:57.203Z,0.39
2023-01-20T19:49:27.302Z,0.37
2023-01-20T19:51:57.498Z,0.36
2023-01-20T19:54:28.801Z,0.32
2023-01-20T19:56:59.166Z,0.28
2023-01-20T19:59:29.280Z,0.22
2023-01-20T20:01:59.573Z,0.21
2023-01-20T20:04:29.814Z,0.19
2023-01-20T20:07:00.041Z,0.16
2023-01-20T20:09:30.532Z,0.11
2023-01-20T20:12:05.330Z,0.16
2023-01-20T20:14:35.501Z,0.14
2023-01-20T20:17:05.666Z,0.17
2023-01-20T20:19:35.962Z,0.19
2023-01-20T20:22:06.112Z,0.20
2023-01-20T20:24:36.278Z,0.17
2023-01-20T20:27:06.363Z,0.15
2023-01-20T20:29:36.434Z,0.14
2023-01-20T20:32:06.685Z,0.20
2023-01-20T20:34:36.844Z,0.18
2023-01-20T20:37:07.226Z,0.08
2023-01-20T20:39:37.473Z,0.13
2023-01-20T20:44:59.571Z,0.12
2023-01-20T20:47:29.771Z,0.13
2023-01-20T20:49:59.840Z,0.09
2023-01-20T20:52:31.008Z,0.12
2023-01-20T20:55:01.165Z,0.10
2023-01-20T20:57:32.295Z,0.09
2023-01-20T21:00:02.414Z,0.12
2023-01-20T21:02:33.787Z,0.13
2023-01-20T21:05:07.799Z,0.08
2023-01-20T21:07:38.088Z,0.10
2023-01-20T21:10:13.850Z,0.06
2023-01-20T21:12:44.956Z,0.01
2023-01-20T21:15:15.242Z,0.03
2023-01-20T21:17:45.692Z,0.05
2023-01-20T21:20:16.291Z,0.05
2023-01-20T21:22:46.657Z,0.04
2023-01-20T21:25:17.924Z,0.01
2023-01-20T21:27:50.406Z,0.03
2023-01-20T21:30:20.738Z,-0.02
2023-01-20T21:32:51.014Z,0.08
2023-01-20T21:35:21.281Z,0.14
2023-01-20T21:37:51.539Z,0.18
2023-01-20T21:40:21.606Z,0.15
2023-01-20T21:42:54.704Z,0.20
2023-01-20T21:45:24.807Z,0.20
2023-01-20T21:48:16.186Z,0.19
2023-01-20T21:51:05.197Z,0.16
2023-01-20T21:53:35.333Z,0.17
2023-01-20T21:56:05.899Z,0.14
2023-01-20T21:58:36.232Z,0.13
2023-01-20T22:01:06.432Z,0.08
2023-01-20T22:03:36.490Z,0.09
2023-01-20T22:06:07.077Z,0.07
2023-01-20T22:08:37.168Z,0.08
2023-01-20T22:11:07.307Z,0.07
2023-01-20T22:13:37.457Z,-0.04
2023-01-20T22:16:07.917Z,0.06
2023-01-20T22:18:38.140Z,0.05
2023-01-20T22:21:08.468Z,0.02
2023-01-20T22:23:38.753Z,0.07
2023-01-20T22:26:09.056Z,0.05
2023-01-20T22:28:40.017Z,0.03
2023-01-20T22:31:13.001Z,0.04
2023-01-20T22:33:43.502Z,0.06
2023-01-20T22:36:13.614Z,0.05
2023-01-20T22:38:45.581Z,0.09
2023-01-20T22:41:16.657Z,0.06
2023-01-20T22:43:48.311Z,0.05
2023-01-20T22:46:22.701Z,0.09
2023-01-20T22:48:54.102Z,0.10
2023-01-20T22:51:27.349Z,0.07
2023-01-20T22:53:59.798Z,0.12
2023-01-20T22:56:32.549Z,0.14
2023-01-20T22:59:02.789Z,0.16
2023-01-20T23:01:35.346Z,0.12
2023-01-20T23:04:06.309Z,0.16
2023-01-20T23:06:36.920Z,0.15
2023-01-20T23:09:10.838Z,0.16
2023-01-20T23:11:41.678Z,0.16
2023-01-20T23:14:15.845Z,0.17
2023-01-20T23:16:48.007Z,0.14
2023-01-20T23:19:23.067Z,0.13
2023-01-20T23:21:53.784Z,0.03
2023-01-20T23:24:23.870Z,0.09
2023-01-20T23:26:54.040Z,0.08
2023-01-20T23:29:24.127Z,0.05
2023-01-20T23:31:54.308Z,-0.01
2023-01-20T23:34:24.880Z,0.06
2023-01-20T23:36:55.252Z,0.05
2023-01-20T23:39:25.498Z,0.06
2023-01-20T23:41:56.160Z,0.04
2023-01-20T23:44:26.324Z,0.00
2023-01-20T23:46:56.421Z,-0.02
2023-01-20T23:49:26.550Z,-0.05
2023-01-20T23:51:56.638Z,-0.06
2023-01-20T23:54:26.833Z,-0.06
2023-01-20T23:57:00.023Z,-0.07
2023-01-20T23:59:30.269Z,-0.09
